EKCH/CPH METAR and TAF weather

Enter ICAO airport designator
Station Type Date Time Source
EKCH METAR 2020/02/25 11:50 UTC NOAA

EKCH 251150Z AUTO 22016KT 190V250 9999 BKN028/// 07/02 Q0986 TEMPO 23018G28KT


Station Type Date Time Source
EKCH Decoded METAR 2020/02/25 11:50 UTC NOAA

Koebenhavn / Kastrup, Denmark (EKCH) 55-37N 012-39E 5M
Feb 25, 2020 - 06:50 AM EST / 2020.02.25 1150 UTC
Wind: from the SW (220 degrees) at 18 MPH (16 KT) (direction variable):0
Visibility: greater than 7 mile(s):0
Sky conditions: mostly cloudy
Temperature: 44 F (7 C)
Dew Point: 35 F (2 C)
Relative Humidity: 70%
Pressure (altimeter): 29.12 in. Hg (0986 hPa)
ob: EKCH 251150Z AUTO 22016KT 190V250 9999 BKN028/// 07/02 Q0986 TEMPO 23018G28KT
cycle: 12

Station Type Date Time Source
EKCH TAF 2020/02/25 12:16 UTC NOAA

TAF EKCH 251111Z 2512/2612 23020KT 9999 BKN025
TEMPO 2512/2516 22022G35KT 4000 SHRAGS BKN012 SCT020CB
TEMPO 2516/2522 24030G45KT 3000 RASN BKN010 BKN020CB
TEMPO 2522/2603 25025G35KT 3000 RASN BKN010 BKN020CB
BECMG 2603/2605 27018G28KT 3000 SNRA BKN006 SCT020CB
BECMG 2605/2607 33015KT 9999 NSW BKN020

Example: see airport list